Time;durP1;ratioP1;P1;durP2;ratioP2;P2;SDS_P1;SDS_P2;PMS_P1;PMS_P2;Temp;Humidity;BMP_temperature;BMP_pressure;BME280_temperature;BME280_humidity;BME280_pressure;Samples;Min_cycle;Max_cycle;Signal;HPM_P1;HPM_P2
2023/08/13 00:03:48;;;;;;;13.88;3.20;;;15.30;99.90;;;;;;7271631;32;20100;-55
2023/08/13 00:07:50;;;;;;;9.13;4.30;;;15.20;99.90;;;;;;7269061;32;20219;-56
2023/08/13 00:11:53;;;;;;;6.75;3.20;;;15.20;99.90;;;;;;7278635;32;20100;-55
2023/08/13 00:15:54;;;;;;;8.68;3.50;;;15.20;99.90;;;;;;7268395;32;20171;-56
2023/08/13 00:19:56;;;;;;;5.90;3.22;;;15.20;99.90;;;;;;7274926;32;20215;-55
2023/08/13 00:23:58;;;;;;;9.73;2.72;;;15.20;99.90;;;;;;7278267;32;20153;-56
2023/08/13 00:28:00;;;;;;;9.05;2.67;;;15.10;99.90;;;;;;7275636;32;20130;-56
2023/08/13 00:32:02;;;;;;;5.28;2.28;;;15.10;99.90;;;;;;7265581;32;20104;-56
2023/08/13 00:36:04;;;;;;;7.07;2.62;;;15.10;99.90;;;;;;7275104;32;20109;-55
2023/08/13 00:40:07;;;;;;;5.53;2.72;;;15.00;99.90;;;;;;7272447;32;21029;-55
2023/08/13 00:44:08;;;;;;;7.15;3.10;;;15.00;99.90;;;;;;7275850;32;20153;-55
2023/08/13 00:48:10;;;;;;;5.07;2.67;;;15.10;99.90;;;;;;7274677;32;20112;-57
2023/08/13 00:52:12;;;;;;;8.10;3.10;;;15.20;99.90;;;;;;7270459;32;20127;-55
2023/08/13 00:56:15;;;;;;;9.52;2.80;;;15.10;99.90;;;;;;7270356;32;20097;-56
2023/08/13 01:00:18;;;;;;;8.15;3.00;;;15.20;99.90;;;;;;7272049;32;20136;-56
2023/08/13 01:04:20;;;;;;;8.07;2.87;;;15.20;99.90;;;;;;7273150;32;20563;-56
2023/08/13 01:08:45;;;;;;;7.90;3.10;;;15.30;99.90;;;;;;7266313;32;20268;-56
2023/08/13 01:12:57;;;;;;;8.63;3.15;;;15.20;99.90;;;;;;7278494;32;20459;-56
2023/08/13 01:17:00;;;;;;;7.65;2.58;;;15.20;99.90;;;;;;7267409;32;20207;-56
2023/08/13 01:21:02;;;;;;;7.53;2.58;;;15.20;99.90;;;;;;7270087;32;20186;-55
2023/08/13 01:25:07;;;;;;;7.82;2.67;;;15.20;99.90;;;;;;7272018;32;20796;-55
2023/08/13 01:29:20;;;;;;;8.80;2.55;;;15.30;99.90;;;;;;7271434;32;20226;-55
2023/08/13 01:33:34;;;;;;;12.73;2.75;;;15.30;99.90;;;;;;7277700;32;20108;-55
2023/08/13 01:37:36;;;;;;;5.85;2.60;;;15.30;99.90;;;;;;7265186;32;20195;-56
2023/08/13 01:41:52;;;;;;;9.15;2.55;;;15.40;99.90;;;;;;7270925;32;20109;-56
2023/08/13 01:45:54;;;;;;;8.50;2.95;;;15.40;99.90;;;;;;7265618;32;20216;-57
2023/08/13 01:49:55;;;;;;;7.82;3.03;;;15.30;99.90;;;;;;7270065;32;20149;-56
2023/08/13 01:53:57;;;;;;;10.73;3.10;;;15.30;99.90;;;;;;7272107;32;20127;-56
2023/08/13 01:57:59;;;;;;;8.77;3.08;;;15.20;99.90;;;;;;7274601;32;20131;-56
2023/08/13 02:02:01;;;;;;;8.70;2.60;;;15.20;99.90;;;;;;7268184;32;20690;-56
2023/08/13 02:06:03;;;;;;;13.48;3.28;;;15.10;99.90;;;;;;7266586;32;20225;-56
2023/08/13 02:10:05;;;;;;;9.18;3.40;;;15.20;99.90;;;;;;7237949;32;20224;-55
2023/08/13 02:14:07;;;;;;;6.97;2.65;;;15.10;99.90;;;;;;7263908;32;20234;-56
2023/08/13 02:18:08;;;;;;;7.05;3.17;;;15.20;99.90;;;;;;7264556;32;20123;-57
2023/08/13 02:22:10;;;;;;;9.82;3.12;;;15.10;99.90;;;;;;7266384;32;20196;-57
2023/08/13 02:26:14;;;;;;;5.05;2.45;;;15.10;99.90;;;;;;7268033;32;20116;-56
2023/08/13 02:30:15;;;;;;;5.82;2.83;;;15.10;99.90;;;;;;7267774;32;20154;-56
2023/08/13 02:34:17;;;;;;;9.38;2.80;;;15.10;99.90;;;;;;7274746;32;20263;-55
2023/08/13 02:38:19;;;;;;;7.62;2.87;;;15.10;99.90;;;;;;7271865;32;20097;-56
2023/08/13 02:42:21;;;;;;;8.45;3.03;;;15.10;99.90;;;;;;7268091;32;20140;-56
2023/08/13 02:46:24;;;;;;;9.93;3.10;;;15.10;99.90;;;;;;7272806;32;20096;-55
2023/08/13 02:50:26;;;;;;;12.98;2.95;;;15.10;99.90;;;;;;7270858;32;20112;-55
2023/08/13 02:54:28;;;;;;;7.20;2.42;;;15.10;99.90;;;;;;7272427;32;20176;-55
2023/08/13 02:58:29;;;;;;;12.05;2.85;;;15.10;99.90;;;;;;7270605;32;20662;-55
2023/08/13 03:02:31;;;;;;;6.68;3.00;;;15.00;99.90;;;;;;7265918;32;20226;-56
2023/08/13 03:06:33;;;;;;;9.80;3.05;;;15.00;99.90;;;;;;7270220;32;20585;-57
2023/08/13 03:10:35;;;;;;;9.27;3.17;;;15.00;99.90;;;;;;7274323;32;20502;-56
2023/08/13 03:14:36;;;;;;;13.88;2.97;;;14.90;99.90;;;;;;7265291;32;20150;-55
2023/08/13 03:18:38;;;;;;;8.30;2.87;;;14.80;99.90;;;;;;7272558;32;20140;-56
2023/08/13 03:22:40;;;;;;;7.93;2.85;;;14.70;99.90;;;;;;7268372;32;20154;-56
2023/08/13 03:26:42;;;;;;;9.15;3.17;;;14.60;99.90;;;;;;7263120;32;20097;-55
2023/08/13 03:30:44;;;;;;;9.38;3.00;;;14.60;99.90;;;;;;7273548;32;20187;-56
2023/08/13 03:34:46;;;;;;;6.25;2.50;;;14.50;99.90;;;;;;7272487;32;20493;-56
2023/08/13 03:38:47;;;;;;;9.82;2.72;;;14.50;99.90;;;;;;7280026;32;20177;-56
2023/08/13 03:42:49;;;;;;;9.48;3.10;;;14.40;99.90;;;;;;7278651;32;20132;-55
2023/08/13 03:46:51;;;;;;;10.75;2.72;;;14.30;99.90;;;;;;7268987;32;20171;-55
2023/08/13 03:50:52;;;;;;;11.15;2.95;;;14.20;99.90;;;;;;7281015;32;20192;-57
2023/08/13 03:54:54;;;;;;;12.45;2.70;;;14.20;99.90;;;;;;7272380;32;20112;-56
2023/08/13 03:58:56;;;;;;;10.23;2.65;;;14.10;99.90;;;;;;7273793;32;20189;-56
2023/08/13 04:02:58;;;;;;;10.23;3.58;;;14.00;99.90;;;;;;7279020;32;20108;-55
2023/08/13 04:07:12;;;;;;;4.80;2.08;;;14.10;99.90;;;;;;7268875;32;20089;-55
2023/08/13 04:11:14;;;;;;;9.25;3.28;;;14.00;99.90;;;;;;7274768;32;20637;-56
2023/08/13 04:15:16;;;;;;;8.43;2.60;;;13.90;99.90;;;;;;7279632;32;20491;-55
2023/08/13 04:19:17;;;;;;;10.80;2.80;;;14.00;99.90;;;;;;7272520;32;20450;-56
2023/08/13 04:23:19;;;;;;;8.95;2.60;;;13.90;99.90;;;;;;7275526;32;20187;-55
2023/08/13 04:27:21;;;;;;;14.15;2.58;;;13.90;99.90;;;;;;7277774;32;20156;-55
2023/08/13 04:31:23;;;;;;;7.93;2.60;;;14.00;99.90;;;;;;7267170;32;20394;-55
2023/08/13 04:35:25;;;;;;;3.75;2.33;;;13.80;99.90;;;;;;7274057;32;20190;-56
2023/08/13 04:39:27;;;;;;;7.40;3.37;;;13.80;99.90;;;;;;7274349;32;20562;-56
2023/08/13 04:43:28;;;;;;;7.80;2.30;;;13.80;99.90;;;;;;7269076;32;20212;-56
2023/08/13 04:47:30;;;;;;;4.97;2.33;;;13.80;99.90;;;;;;7272274;32;20611;-56
2023/08/13 04:51:32;;;;;;;8.90;2.58;;;13.80;99.90;;;;;;7277694;32;20495;-57
2023/08/13 04:55:33;;;;;;;6.90;2.30;;;13.90;99.90;;;;;;7274191;32;20204;-56
2023/08/13 04:59:35;;;;;;;6.70;2.55;;;14.00;99.90;;;;;;7273067;32;20150;-55
2023/08/13 05:03:38;;;;;;;6.85;2.85;;;14.00;99.90;;;;;;7266770;32;20179;-54
2023/08/13 05:07:40;;;;;;;8.18;2.33;;;14.10;99.90;;;;;;7266043;32;20126;-55
2023/08/13 05:11:42;;;;;;;8.70;2.35;;;14.30;99.90;;;;;;7269855;32;20196;-54
2023/08/13 05:15:44;;;;;;;8.10;2.75;;;14.40;99.90;;;;;;7275077;32;20194;-54
2023/08/13 05:19:47;;;;;;;9.35;2.50;;;14.50;99.90;;;;;;7280272;32;20523;-55
2023/08/13 05:23:48;;;;;;;5.30;2.25;;;14.60;99.90;;;;;;7269037;32;20163;-54
2023/08/13 05:27:50;;;;;;;7.03;2.40;;;14.60;99.90;;;;;;7268545;32;20162;-56
2023/08/13 05:31:53;;;;;;;6.72;2.87;;;14.70;99.90;;;;;;7277618;32;20223;-55
2023/08/13 05:35:55;;;;;;;7.25;2.55;;;14.80;99.90;;;;;;7277881;32;20116;-55
2023/08/13 05:39:57;;;;;;;8.32;2.47;;;14.80;99.90;;;;;;7272291;32;20167;-55
2023/08/13 05:43:59;;;;;;;7.62;2.45;;;14.90;99.90;;;;;;7278027;32;20100;-54
2023/08/13 05:48:01;;;;;;;7.53;2.83;;;14.90;99.90;;;;;;7275038;32;20545;-54
2023/08/13 05:52:03;;;;;;;6.30;2.55;;;15.00;99.90;;;;;;7260298;32;20540;-54
2023/08/13 05:56:05;;;;;;;7.45;2.30;;;15.00;99.90;;;;;;7265532;32;20134;-54
2023/08/13 06:00:10;;;;;;;6.53;2.50;;;15.00;99.90;;;;;;7273246;32;20127;-54
2023/08/13 06:04:12;;;;;;;6.55;2.28;;;15.10;99.90;;;;;;7273997;32;20135;-55
2023/08/13 06:08:13;;;;;;;9.23;2.10;;;15.20;99.90;;;;;;7277489;32;20268;-56
2023/08/13 06:12:15;;;;;;;7.05;2.83;;;15.30;99.90;;;;;;7271116;32;20187;-55
2023/08/13 06:16:17;;;;;;;6.00;2.70;;;15.40;99.90;;;;;;7273872;32;20127;-56
2023/08/13 06:20:19;;;;;;;9.50;2.70;;;15.50;99.90;;;;;;7263481;32;20101;-54
2023/08/13 06:24:21;;;;;;;12.70;2.95;;;15.70;99.90;;;;;;7270687;32;20132;-55
2023/08/13 06:28:23;;;;;;;11.48;4.25;;;15.90;99.90;;;;;;7268913;32;20229;-55
2023/08/13 06:32:25;;;;;;;10.52;3.83;;;16.20;99.90;;;;;;7274792;32;20128;-56
2023/08/13 06:36:26;;;;;;;7.18;3.35;;;16.40;99.90;;;;;;7267567;32;20128;-55
2023/08/13 06:40:29;;;;;;;10.73;3.42;;;16.50;99.90;;;;;;7271807;32;20207;-56
2023/08/13 06:44:31;;;;;;;7.60;3.80;;;16.70;99.90;;;;;;7269457;32;20100;-56
2023/08/13 06:48:33;;;;;;;7.80;3.60;;;16.80;99.90;;;;;;7275990;32;20134;-55
2023/08/13 06:52:35;;;;;;;9.93;3.78;;;17.00;99.90;;;;;;7275344;32;20540;-56
2023/08/13 06:56:37;;;;;;;10.85;3.17;;;17.10;99.90;;;;;;7274295;32;20537;-55
2023/08/13 07:00:40;;;;;;;10.68;3.53;;;17.20;99.90;;;;;;7272568;32;20157;-54
2023/08/13 07:04:42;;;;;;;8.95;3.95;;;17.30;99.90;;;;;;7273776;32;20128;-55
2023/08/13 07:08:44;;;;;;;7.97;3.15;;;17.50;99.90;;;;;;7267886;32;20258;-55
2023/08/13 07:12:45;;;;;;;8.30;2.78;;;17.50;99.90;;;;;;7275219;32;20139;-56
2023/08/13 07:16:47;;;;;;;10.27;3.55;;;17.60;99.90;;;;;;7275368;32;20119;-55
2023/08/13 07:20:49;;;;;;;8.98;3.60;;;17.60;99.90;;;;;;7279259;32;20109;-55
2023/08/13 07:24:51;;;;;;;12.50;3.90;;;17.70;99.90;;;;;;7277505;32;20120;-55
2023/08/13 07:28:52;;;;;;;7.62;3.15;;;17.70;99.90;;;;;;7278672;32;20559;-55
2023/08/13 07:32:54;;;;;;;9.52;3.12;;;17.80;99.90;;;;;;7276255;32;20127;-56
2023/08/13 07:36:56;;;;;;;9.25;3.42;;;18.00;99.90;;;;;;7269924;32;20533;-55
2023/08/13 07:40:58;;;;;;;6.53;3.00;;;18.10;99.90;;;;;;7278390;32;20209;-57
2023/08/13 07:45:00;;;;;;;9.75;3.37;;;18.10;99.90;;;;;;7270193;32;20591;-55
2023/08/13 07:49:02;;;;;;;7.22;2.95;;;18.20;99.90;;;;;;7272884;32;20123;-55
2023/08/13 07:53:04;;;;;;;13.35;3.90;;;18.30;99.90;;;;;;7275778;32;20641;-57
2023/08/13 07:57:06;;;;;;;6.40;2.72;;;18.60;99.90;;;;;;7273274;32;20119;-54
2023/08/13 08:01:08;;;;;;;11.93;2.67;;;18.60;99.90;;;;;;7273397;32;20199;-55
2023/08/13 08:05:10;;;;;;;10.27;2.33;;;18.80;99.90;;;;;;7270889;32;20099;-55
2023/08/13 08:09:12;;;;;;;7.50;2.10;;;19.20;99.90;;;;;;7276648;32;20100;-54
2023/08/13 08:13:13;;;;;;;9.93;1.90;;;19.50;99.90;;;;;;7278399;32;20254;-54
2023/08/13 08:17:15;;;;;;;4.57;1.98;;;19.70;99.90;;;;;;7272262;32;20127;-55
2023/08/13 08:21:17;;;;;;;7.12;2.03;;;19.80;99.90;;;;;;7273035;32;20361;-55
2023/08/13 08:25:19;;;;;;;6.95;1.87;;;19.80;99.90;;;;;;7273389;32;20104;-55
2023/08/13 08:29:21;;;;;;;6.12;1.65;;;19.90;99.90;;;;;;7271385;32;20160;-55
2023/08/13 08:33:23;;;;;;;8.68;1.87;;;20.10;99.90;;;;;;7274254;32;20245;-55
2023/08/13 08:37:25;;;;;;;9.15;1.98;;;20.40;99.90;;;;;;7267382;32;20134;-55
2023/08/13 08:41:29;;;;;;;3.95;1.50;;;20.60;99.90;;;;;;7262540;32;20125;-55
2023/08/13 08:45:32;;;;;;;7.18;2.28;;;20.80;99.90;;;;;;7272722;32;20660;-55
2023/08/13 08:49:35;;;;;;;4.90;1.37;;;21.20;99.90;;;;;;7274640;32;20127;-55
2023/08/13 08:53:38;;;;;;;6.80;1.85;;;21.90;99.90;;;;;;7274921;32;20107;-55
2023/08/13 08:57:39;;;;;;;7.35;1.65;;;22.90;99.90;;;;;;7273390;32;20218;-58
2023/08/13 09:01:41;;;;;;;6.12;1.58;;;24.10;99.90;;;;;;7271519;32;20243;-59
2023/08/13 09:05:43;;;;;;;5.07;1.42;;;24.70;99.90;;;;;;7274273;32;20528;-60
2023/08/13 09:09:48;;;;;;;4.47;1.30;;;25.70;99.90;;;;;;7273345;32;20278;-60
2023/08/13 09:13:51;;;;;;;4.30;1.52;;;26.00;99.90;;;;;;7272210;32;20878;-58
2023/08/13 09:17:52;;;;;;;5.28;1.50;;;26.10;99.90;;;;;;7270721;32;20178;-57
2023/08/13 09:21:57;;;;;;;6.35;1.75;;;25.80;99.90;;;;;;7271610;32;20096;-56
2023/08/13 09:25:58;;;;;;;2.87;0.90;;;25.60;99.90;;;;;;7268340;32;20132;-56
2023/08/13 09:30:00;;;;;;;6.18;1.48;;;25.20;99.90;;;;;;7271036;32;20113;-57
2023/08/13 09:34:05;;;;;;;4.35;1.02;;;24.60;99.90;;;;;;7262964;32;20186;-56
2023/08/13 09:38:07;;;;;;;5.18;1.50;;;24.40;99.90;;;;;;7274754;32;20469;-57
2023/08/13 09:42:09;;;;;;;5.55;1.10;;;24.50;99.90;;;;;;7273331;32;20183;-56
2023/08/13 09:46:12;;;;;;;5.68;1.40;;;24.30;99.90;;;;;;7270060;32;20183;-57
2023/08/13 09:50:17;;;;;;;4.47;1.20;;;24.30;99.90;;;;;;7267788;32;20121;-57
2023/08/13 09:54:34;;;;;;;4.22;1.20;;;24.40;99.90;;;;;;7269459;32;20127;-57
2023/08/13 09:58:36;;;;;;;3.53;1.15;;;24.40;99.90;;;;;;7268086;32;20185;-57
2023/08/13 10:02:42;;;;;;;5.85;1.52;;;24.30;99.90;;;;;;7267158;32;20260;-56
2023/08/13 10:06:46;;;;;;;7.37;1.60;;;24.50;99.90;;;;;;7268283;32;20148;-57
2023/08/13 10:10:49;;;;;;;4.97;1.33;;;24.80;99.90;;;;;;7268967;32;20184;-57
2023/08/13 10:14:50;;;;;;;7.03;1.65;;;25.30;99.90;;;;;;7268666;32;20522;-56
2023/08/13 10:18:58;;;;;;;5.45;1.40;;;25.60;99.90;;;;;;7267672;32;20126;-56
2023/08/13 10:23:01;;;;;;;6.78;1.58;;;25.60;99.90;;;;;;7265856;32;20175;-57
2023/08/13 10:27:03;;;;;;;5.82;1.40;;;25.30;99.90;;;;;;7267753;32;20273;-56
2023/08/13 10:31:22;;;;;;;5.70;1.52;;;25.20;99.90;;;;;;7268049;32;20183;-57
2023/08/13 10:35:28;;;;;;;7.90;1.45;;;25.20;99.90;;;;;;7268136;32;20101;-57
2023/08/13 10:39:32;;;;;;;6.60;1.58;;;24.90;99.90;;;;;;7269619;32;20665;-56
2023/08/13 10:43:34;;;;;;;6.10;1.45;;;24.60;99.90;;;;;;7268855;32;20226;-56
2023/08/13 10:47:46;;;;;;;6.30;1.70;;;24.40;99.90;;;;;;7261791;32;20122;-54
2023/08/13 10:51:48;;;;;;;3.85;1.65;;;24.20;99.90;;;;;;7264919;32;20161;-56
2023/08/13 10:55:52;;;;;;;10.80;1.98;;;24.20;99.90;;;;;;7267519;32;20104;-55
2023/08/13 10:59:56;;;;;;;4.53;1.60;;;24.50;99.90;;;;;;7273721;32;20702;-56
2023/08/13 11:03:57;;;;;;;8.10;1.98;;;24.40;99.90;;;;;;7270676;32;20954;-57
2023/08/13 11:08:00;;;;;;;5.40;1.60;;;24.10;99.90;;;;;;7267746;32;20135;-56
2023/08/13 11:12:02;;;;;;;5.85;1.95;;;23.90;99.90;;;;;;7274520;32;20128;-56
2023/08/13 11:16:04;;;;;;;5.93;1.50;;;23.80;99.90;;;;;;7271661;32;20131;-55
2023/08/13 11:20:07;;;;;;;5.95;1.42;;;24.10;99.90;;;;;;7275212;32;20183;-55
2023/08/13 11:24:10;;;;;;;5.68;1.40;;;24.30;99.90;;;;;;7270855;32;20109;-55
2023/08/13 11:28:16;;;;;;;6.32;1.90;;;24.60;99.90;;;;;;7272100;32;20478;-55
2023/08/13 11:32:18;;;;;;;;;;;24.80;99.90;;;;;;7276041;32;20760;-55
2023/08/13 11:36:20;;;;;;;6.37;1.95;;;24.90;99.90;;;;;;7268059;32;20094;-56
2023/08/13 11:40:22;;;;;;;7.03;1.80;;;24.40;99.90;;;;;;7264281;32;20254;-55
2023/08/13 11:44:24;;;;;;;8.13;1.83;;;24.30;99.90;;;;;;7271999;32;20124;-57
2023/08/13 11:48:27;;;;;;;7.50;1.75;;;24.10;99.90;;;;;;7268547;32;20195;-55
2023/08/13 11:52:30;;;;;;;4.85;1.55;;;23.60;99.90;;;;;;7264080;32;20139;-56
2023/08/13 11:56:31;;;;;;;4.55;1.70;;;23.50;99.90;;;;;;7271425;32;20129;-55
2023/08/13 12:00:33;;;;;;;7.50;2.00;;;23.30;99.90;;;;;;7278695;32;20780;-55
2023/08/13 12:04:35;;;;;;;6.25;2.10;;;23.30;99.90;;;;;;7272994;32;20287;-56
2023/08/13 12:08:46;;;;;;;7.93;2.42;;;23.50;99.90;;;;;;7267522;32;20478;-55
2023/08/13 12:12:49;;;;;;;6.37;1.58;;;23.70;99.90;;;;;;7278111;32;20116;-55
2023/08/13 12:16:50;;;;;;;6.75;1.70;;;23.90;99.90;;;;;;7269666;32;20124;-57
2023/08/13 12:20:52;;;;;;;6.05;2.20;;;23.80;99.90;;;;;;7278387;32;20116;-55
2023/08/13 12:24:54;;;;;;;7.40;2.00;;;23.60;99.90;;;;;;7275227;32;20112;-56
2023/08/13 12:28:56;;;;;;;7.55;1.83;;;23.50;99.90;;;;;;7270268;32;20187;-55
2023/08/13 12:32:58;;;;;;;7.53;1.55;;;23.60;99.90;;;;;;7279879;32;20108;-56
2023/08/13 12:37:00;;;;;;;4.45;1.70;;;23.70;99.90;;;;;;7273897;32;20108;-57
2023/08/13 12:41:02;;;;;;;8.30;1.80;;;23.80;99.90;;;;;;7264584;32;20118;-56
2023/08/13 12:45:05;;;;;;;6.05;1.85;;;23.80;99.90;;;;;;7276238;32;20128;-57
2023/08/13 12:49:07;;;;;;;6.55;1.92;;;23.90;99.90;;;;;;7278170;32;20169;-56
2023/08/13 12:53:09;;;;;;;9.27;2.47;;;23.90;99.90;;;;;;7279878;32;20301;-57
2023/08/13 12:57:11;;;;;;;7.05;1.95;;;24.10;99.90;;;;;;7277478;32;20129;-55
2023/08/13 13:01:13;;;;;;;5.25;1.60;;;24.40;99.90;;;;;;7270237;32;20105;-55
2023/08/13 13:05:14;;;;;;;6.28;1.80;;;24.70;99.90;;;;;;7274215;32;20610;-55
2023/08/13 13:09:16;;;;;;;8.95;2.15;;;25.00;99.90;;;;;;7271776;32;20240;-55
2023/08/13 13:13:18;;;;;;;4.70;1.75;;;25.10;99.90;;;;;;7268308;32;20120;-56
2023/08/13 13:17:22;;;;;;;4.32;1.92;;;25.20;99.90;;;;;;7269260;32;20285;-56
2023/08/13 13:21:24;;;;;;;7.35;1.75;;;25.20;99.90;;;;;;7278766;32;20147;-56
2023/08/13 13:25:26;;;;;;;5.93;1.95;;;24.80;99.90;;;;;;7275137;32;20293;-56
2023/08/13 13:29:28;;;;;;;5.82;1.87;;;25.00;99.90;;;;;;7277676;32;20104;-55
2023/08/13 13:33:30;;;;;;;8.90;2.17;;;25.10;99.90;;;;;;7279855;32;20120;-56
2023/08/13 13:37:32;;;;;;;4.72;1.90;;;24.90;99.90;;;;;;7270723;32;20218;-56
2023/08/13 13:41:34;;;;;;;5.15;1.92;;;24.30;99.90;;;;;;7270521;32;20109;-56
2023/08/13 13:45:36;;;;;;;6.25;1.90;;;24.40;99.90;;;;;;7273503;32;20118;-55
2023/08/13 13:49:37;;;;;;;6.97;2.22;;;24.40;99.90;;;;;;7275930;32;20108;-56
2023/08/13 13:53:39;;;;;;;6.97;2.12;;;24.50;99.90;;;;;;7278123;32;20541;-55
2023/08/13 13:57:41;;;;;;;5.53;1.92;;;24.60;99.90;;;;;;7275915;32;20136;-55
2023/08/13 14:01:45;;;;;;;4.65;1.98;;;24.60;99.90;;;;;;7264151;32;20115;-55
2023/08/13 14:05:53;;;;;;;4.57;1.87;;;25.30;99.90;;;;;;7262883;32;20576;-55
2023/08/13 14:09:55;;;;;;;8.98;1.98;;;25.50;99.90;;;;;;7276632;32;20123;-56
2023/08/13 14:13:56;;;;;;;6.90;2.22;;;25.50;99.90;;;;;;7277567;32;20725;-55
2023/08/13 14:17:58;;;;;;;6.18;1.55;;;25.00;99.90;;;;;;7288133;32;20103;-56
2023/08/13 14:22:00;;;;;;;6.47;2.45;;;24.90;99.90;;;;;;7276192;32;20104;-56
2023/08/13 14:26:02;;;;;;;6.35;2.28;;;24.70;99.90;;;;;;7277446;32;20174;-55
2023/08/13 14:30:04;;;;;;;5.65;2.08;;;24.50;99.90;;;;;;7268773;32;20144;-56
2023/08/13 14:34:05;;;;;;;7.55;1.83;;;24.20;99.90;;;;;;7267683;32;20500;-55
2023/08/13 14:38:07;;;;;;;6.53;1.60;;;24.00;99.90;;;;;;7267546;32;20104;-55
2023/08/13 14:42:09;;;;;;;4.95;1.50;;;24.10;99.90;;;;;;7264522;32;20138;-55
2023/08/13 14:46:11;;;;;;;5.05;1.52;;;24.00;99.90;;;;;;7263047;32;20180;-55
2023/08/13 14:50:13;;;;;;;2.95;1.30;;;24.30;99.90;;;;;;7265213;32;20097;-52
2023/08/13 14:54:14;;;;;;;5.15;1.40;;;24.50;99.90;;;;;;7270199;32;20226;-52
2023/08/13 14:58:16;;;;;;;4.75;1.30;;;24.50;99.90;;;;;;7271104;32;20203;-53
2023/08/13 15:02:18;;;;;;;3.17;1.35;;;24.30;99.90;;;;;;7270677;32;20338;-52
2023/08/13 15:06:20;;;;;;;3.90;1.50;;;24.10;99.90;;;;;;7265053;32;20187;-53
2023/08/13 15:10:22;;;;;;;4.25;1.62;;;24.40;99.90;;;;;;7263565;32;20104;-54
2023/08/13 15:14:24;;;;;;;3.90;1.40;;;24.90;99.90;;;;;;7269073;32;20179;-58
2023/08/13 15:18:26;;;;;;;6.15;1.25;;;25.00;99.90;;;;;;7267060;32;20187;-58
2023/08/13 15:22:28;;;;;;;5.03;1.50;;;25.00;99.90;;;;;;7268465;32;20104;-57
2023/08/13 15:26:30;;;;;;;4.05;0.93;;;24.90;99.90;;;;;;7267085;32;20131;-56
2023/08/13 15:30:31;;;;;;;3.35;1.20;;;24.70;99.90;;;;;;7268797;32;20245;-57
2023/08/13 15:34:33;;;;;;;3.35;1.00;;;24.50;99.90;;;;;;7273864;32;20247;-57
2023/08/13 15:38:35;;;;;;;3.97;1.35;;;24.50;99.90;;;;;;7269918;32;20274;-57
2023/08/13 15:42:37;;;;;;;3.00;1.25;;;24.60;99.90;;;;;;7273032;32;20200;-58
2023/08/13 15:46:38;;;;;;;3.10;1.20;;;24.70;99.90;;;;;;7265801;32;20128;-58
2023/08/13 15:50:40;;;;;;;7.35;1.67;;;24.70;99.90;;;;;;7270207;32;20139;-57
2023/08/13 15:54:42;;;;;;;4.95;1.35;;;24.50;99.90;;;;;;7264889;32;20131;-58
2023/08/13 15:58:44;;;;;;;2.05;1.08;;;24.10;99.90;;;;;;7270479;32;20104;-59
2023/08/13 16:02:46;;;;;;;4.68;1.52;;;24.00;99.90;;;;;;7270038;32;20517;-58
2023/08/13 16:06:47;;;;;;;4.53;1.17;;;24.00;99.90;;;;;;7276970;32;20120;-58
2023/08/13 16:10:59;;;;;;;5.18;1.50;;;24.00;99.90;;;;;;7285697;32;20122;-58
2023/08/13 16:15:10;;;;;;;4.57;1.20;;;23.90;99.90;;;;;;7271233;32;20127;-57
2023/08/13 16:19:11;;;;;;;5.00;1.50;;;23.80;99.90;;;;;;7277164;32;20104;-58
2023/08/13 16:23:13;;;;;;;5.15;1.45;;;23.80;99.90;;;;;;7271346;32;20176;-58
2023/08/13 16:27:15;;;;;;;7.15;1.80;;;23.80;99.90;;;;;;7275093;32;20112;-57
2023/08/13 16:31:17;;;;;;;6.07;1.40;;;23.80;99.90;;;;;;7271106;32;20211;-58
2023/08/13 16:35:18;;;;;;;3.28;1.20;;;23.70;99.90;;;;;;7272021;32;20440;-57
2023/08/13 16:39:20;;;;;;;5.65;1.30;;;23.70;99.90;;;;;;7272271;32;20138;-57
2023/08/13 16:43:22;;;;;;;4.18;1.40;;;23.60;99.90;;;;;;7270408;32;20107;-57
2023/08/13 16:47:24;;;;;;;4.65;1.48;;;23.60;99.90;;;;;;7267608;32;20531;-57
2023/08/13 16:51:27;;;;;;;4.65;1.75;;;23.50;99.90;;;;;;7267923;32;20165;-57
2023/08/13 16:55:28;;;;;;;4.47;1.62;;;23.50;99.90;;;;;;7265815;32;20119;-58
2023/08/13 16:59:30;;;;;;;8.25;1.80;;;23.50;99.90;;;;;;7269723;32;20111;-58
2023/08/13 17:03:32;;;;;;;7.32;1.85;;;23.40;99.90;;;;;;7268450;32;20112;-58
2023/08/13 17:07:34;;;;;;;4.78;1.65;;;23.30;99.90;;;;;;7268646;32;20179;-58
2023/08/13 17:11:38;;;;;;;4.20;1.62;;;23.20;99.90;;;;;;7274120;32;20117;-58
2023/08/13 17:15:40;;;;;;;4.22;1.40;;;23.10;99.90;;;;;;7272214;32;20219;-58
2023/08/13 17:19:41;;;;;;;4.20;1.37;;;23.20;99.90;;;;;;7270963;32;20131;-58
2023/08/13 17:23:43;;;;;;;5.18;1.42;;;23.10;99.90;;;;;;7269710;32;20104;-58
2023/08/13 17:27:45;;;;;;;7.07;1.48;;;23.10;99.90;;;;;;7270640;32;20207;-55
2023/08/13 17:31:48;;;;;;;6.55;1.70;;;23.00;99.90;;;;;;7265539;32;20123;-56
2023/08/13 17:35:50;;;;;;;5.32;1.58;;;23.10;99.90;;;;;;7265646;32;20093;-56
2023/08/13 17:39:51;;;;;;;5.40;1.50;;;22.90;99.90;;;;;;7271786;32;20219;-57
2023/08/13 17:43:53;;;;;;;3.20;1.40;;;22.90;99.90;;;;;;7272456;32;20764;-57
2023/08/13 17:47:55;;;;;;;4.62;1.40;;;22.70;99.90;;;;;;7268146;32;20096;-57
2023/08/13 17:51:57;;;;;;;5.60;1.75;;;22.70;99.90;;;;;;7269166;32;20209;-57
2023/08/13 17:56:00;;;;;;;5.12;1.50;;;22.70;99.90;;;;;;7270434;32;20126;-56
2023/08/13 18:00:03;;;;;;;5.45;1.50;;;22.60;99.90;;;;;;7266356;32;20123;-57
2023/08/13 18:04:05;;;;;;;5.78;1.65;;;22.50;99.90;;;;;;7267746;32;20593;-56
2023/08/13 18:08:07;;;;;;;5.62;1.77;;;22.60;99.90;;;;;;7268596;32;20107;-57
2023/08/13 18:12:16;;;;;;;4.78;1.65;;;22.50;99.90;;;;;;7272223;32;20195;-58
2023/08/13 18:16:18;;;;;;;4.45;1.40;;;22.40;99.90;;;;;;7266148;32;20612;-57
2023/08/13 18:20:20;;;;;;;4.03;1.30;;;22.20;99.90;;;;;;7267944;32;20559;-58
2023/08/13 18:24:22;;;;;;;4.18;1.50;;;22.10;99.90;;;;;;7268625;32;20119;-57
2023/08/13 18:28:24;;;;;;;5.70;1.52;;;21.90;99.90;;;;;;7263829;32;20105;-57
2023/08/13 18:32:26;;;;;;;6.65;1.50;;;21.80;99.90;;;;;;7264953;32;20129;-56
2023/08/13 18:36:30;;;;;;;6.43;1.50;;;21.60;99.90;;;;;;7267785;32;20442;-57
2023/08/13 18:40:32;;;;;;;4.15;1.58;;;21.50;99.90;;;;;;7261468;32;20405;-56
2023/08/13 18:44:33;;;;;;;4.65;1.80;;;21.40;99.90;;;;;;7268330;32;20104;-59
2023/08/13 18:48:35;;;;;;;4.20;1.55;;;21.20;99.90;;;;;;7264989;32;20747;-57
2023/08/13 18:52:40;;;;;;;4.15;1.70;;;21.10;99.90;;;;;;7261063;32;20187;-56
2023/08/13 18:56:41;;;;;;;7.32;1.60;;;20.80;99.90;;;;;;7266318;32;20108;-57
2023/08/13 19:00:46;;;;;;;6.90;1.75;;;20.70;99.90;;;;;;7266579;32;20143;-57
2023/08/13 19:04:48;;;;;;;8.80;2.70;;;20.40;99.90;;;;;;7261519;32;20269;-57
2023/08/13 19:08:50;;;;;;;7.75;2.55;;;20.10;99.90;;;;;;7260678;32;20167;-57
2023/08/13 19:12:52;;;;;;;4.80;1.67;;;19.80;99.90;;;;;;7266690;32;20137;-56
2023/08/13 19:16:54;;;;;;;8.35;1.60;;;19.50;99.90;;;;;;7264161;32;20120;-56
2023/08/13 19:20:56;;;;;;;5.12;1.83;;;19.20;99.90;;;;;;7258493;32;20128;-56
2023/08/13 19:24:57;;;;;;;9.88;1.98;;;18.90;99.90;;;;;;7264244;32;20191;-55
2023/08/13 19:29:00;;;;;;;6.80;2.42;;;18.70;99.90;;;;;;7265167;32;20614;-56
2023/08/13 19:33:01;;;;;;;10.13;2.47;;;18.50;99.90;;;;;;7260045;32;20330;-55
2023/08/13 19:37:03;;;;;;;9.45;1.83;;;18.30;99.90;;;;;;7261922;32;20105;-55
2023/08/13 19:41:05;;;;;;;4.95;1.65;;;18.10;99.90;;;;;;7265169;32;20290;-56
2023/08/13 19:45:07;;;;;;;7.95;2.03;;;17.80;99.90;;;;;;7266152;32;20128;-55
2023/08/13 19:49:09;;;;;;;4.40;1.98;;;17.70;99.90;;;;;;7266877;32;20127;-55
2023/08/13 19:53:11;;;;;;;8.05;2.00;;;17.60;99.90;;;;;;7266713;32;22411;-56
2023/08/13 19:57:12;;;;;;;6.37;1.60;;;17.50;99.90;;;;;;7265178;32;20813;-55
2023/08/13 20:01:14;;;;;;;5.32;1.52;;;17.40;99.90;;;;;;7264300;32;20298;-55
2023/08/13 20:05:16;;;;;;;12.82;2.42;;;17.20;99.90;;;;;;7273808;32;20215;-56
2023/08/13 20:09:18;;;;;;;7.62;2.30;;;17.10;99.90;;;;;;7272720;32;20254;-56
2023/08/13 20:13:19;;;;;;;7.20;1.83;;;17.00;99.90;;;;;;7269861;32;20249;-55
2023/08/13 20:17:22;;;;;;;10.68;2.05;;;16.90;99.90;;;;;;7270840;32;20167;-55
2023/08/13 20:21:24;;;;;;;5.62;1.83;;;16.80;99.90;;;;;;7272341;32;20344;-55
2023/08/13 20:25:26;;;;;;;8.23;2.25;;;16.70;99.90;;;;;;7269390;32;20187;-55
2023/08/13 20:29:29;;;;;;;5.82;2.20;;;16.70;99.90;;;;;;7269203;32;20203;-56
2023/08/13 20:33:31;;;;;;;5.65;2.42;;;16.60;99.90;;;;;;7273456;32;20902;-57
2023/08/13 20:37:33;;;;;;;9.85;3.30;;;16.40;99.90;;;;;;7273330;32;20100;-56
2023/08/13 20:41:35;;;;;;;11.55;6.32;;;16.40;99.90;;;;;;7272156;32;20104;-56
2023/08/13 20:45:37;;;;;;;32.28;14.60;;;16.40;99.90;;;;;;7268460;32;20151;-57
2023/08/13 20:49:39;;;;;;;8.20;3.45;;;16.30;99.90;;;;;;7269209;32;20191;-57
2023/08/13 20:53:42;;;;;;;12.32;3.62;;;16.20;99.90;;;;;;7262841;32;20120;-56
2023/08/13 20:57:44;;;;;;;27.15;11.35;;;16.20;99.90;;;;;;7270261;32;20214;-57
2023/08/13 21:01:45;;;;;;;12.85;3.92;;;16.20;99.90;;;;;;7270671;32;20227;-57